Galena Park, TX (77547)

3:02 AM CST on December 10, 2016 (GMT -0600)
Galnea Park | | Change Station

Elev 36 ft 29.73 °N, 95.22 °W | Updated 57 seconds ago

Clear
Clear
43.7 °F
Feels Like 39 °F
N
8.1
Wind Variable Wind from North
Gusts 10.0 mph

Today
High -- | Low -- °F
--% Chance of Precip.
Yesterday
High -- | Low -- °F
Precip. -- in
Pressure 30.51 in
Visibility 10.0 miles
Clouds Few 8000 ft
Windchill 39 °F
Dew Point 32 °F
Humidity 63%
Rainfall 0.00 in
Snow Depth Not available.
7:05 AM 5:22 PM
Waxing Gibbous, 82% visible
METAR KHOU 100853Z 05004KT 10SM FEW080 06/M01 A3049 RMK AO2 SLP329 T00561011 56008
Pressure 30.51 in
Visibility 10.0 miles
Clouds Few 8000 ft
Windchill 39 °F
Dew Point 32 °F
Humidity 63%
Rainfall 0.00 in
Snow Depth Not available.
7:05 AM 5:22 PM
Waxing Gibbous, 82% visible
METAR KHOU 100853Z 05004KT 10SM FEW080 06/M01 A3049 RMK AO2 SLP329 T00561011 56008

10-Day Weather Forecast

Almanac

Astronomy

Dec. 10, 2016 Rise Set
Actual Time
Civil Twilight
Nautical Twilight
Astronomical Twilight
Moon
Length of Visible Light
Length of Day
Tomorrow will be .
, % of the Moon is Illuminated

Today's Extremes

State Highs State Lows

Community

WunderPhotos

Upload Photos

1,956,538 photos uploaded!

WunderBlog® & News

Nearby

Air Quality

  Air Quality AQ Index Pollutant
Not available.

Snow Depth

Station Depth Elevation

Earthquake Activity

City Distance Mag. Time & Date
Minimum magnitude displayed is 2.5.

Coastal Water Temperatures

Place Temperature

Stations

Nearby Weather Stations

Station Location Temp. Windchill Dew Point Humidity Wind Precip. Elev Updated Type
                   

Watches & Warnings

There are currently no watches in effect.